Time;durP1;ratioP1;P1;durP2;ratioP2;P2;SDS_P1;SDS_P2;PMS_P1;PMS_P2;Temp;Humidity;BMP_temperature;BMP_pressure;BME280_temperature;BME280_humidity;BME280_pressure;Samples;Min_cycle;Max_cycle;Signal;HPM_P1;HPM_P2
2023/09/13 00:01:11;;;;;;;57.57;3.13;;;;;;;;;;4952835;28;20456;-70
2023/09/13 00:03:38;;;;;;;56.90;2.77;;;;;;;;;;4952761;28;20453;-71
2023/09/13 00:06:05;;;;;;;57.30;3.53;;;;;;;;;;4952427;28;20476;-71
2023/09/13 00:08:32;;;;;;;56.90;2.80;;;;;;;;;;4952829;28;20459;-71
2023/09/13 00:11:03;;;;;;;57.47;3.10;;;;;;;;;;4952623;28;20460;-71
2023/09/13 00:13:30;;;;;;;57.50;3.80;;;;;;;;;;4952785;28;20512;-71
2023/09/13 00:15:57;;;;;;;57.07;2.90;;;;;;;;;;4956761;28;20493;-71
2023/09/13 00:18:25;;;;;;;58.10;3.70;;;;;;;;;;4964399;28;20453;-71
2023/09/13 00:20:53;;;;;;;57.27;3.00;;;;;;;;;;4965626;28;20450;-71
2023/09/13 00:23:21;;;;;;;58.17;3.43;;;;;;;;;;4964534;28;20461;-71
2023/09/13 00:25:48;;;;;;;57.23;2.80;;;;;;;;;;4953194;29;20446;-71
2023/09/13 00:28:15;;;;;;;57.40;3.40;;;;;;;;;;4946934;29;20452;-71
2023/09/13 00:30:42;;;;;;;57.23;2.90;;;;;;;;;;4947518;29;20462;-70
2023/09/13 00:33:09;;;;;;;57.63;3.50;;;;;;;;;;4948846;29;20464;-71
2023/09/13 00:35:38;;;;;;;59.17;4.40;;;;;;;;;;4962103;28;20500;-70
2023/09/13 00:38:05;;;;;;;57.37;3.10;;;;;;;;;;4954287;29;21006;-71
2023/09/13 00:40:32;;;;;;;57.20;3.10;;;;;;;;;;4954199;29;20449;-70
2023/09/13 00:43:00;;;;;;;57.10;3.10;;;;;;;;;;4951506;29;20462;-71
2023/09/13 00:45:27;;;;;;;57.83;3.17;;;;;;;;;;4957162;28;20453;-71
2023/09/13 00:47:54;;;;;;;57.67;3.43;;;;;;;;;;4946198;29;20484;-71
2023/09/13 00:50:21;;;;;;;57.50;3.33;;;;;;;;;;4946216;29;20454;-71
2023/09/13 00:52:50;;;;;;;57.40;2.93;;;;;;;;;;4960654;29;20971;-70
2023/09/13 00:55:17;;;;;;;57.30;3.20;;;;;;;;;;4959077;28;20499;-68
2023/09/13 00:57:46;;;;;;;58.40;3.50;;;;;;;;;;4964988;28;20480;-68
2023/09/13 01:00:14;;;;;;;57.00;2.70;;;;;;;;;;4965764;28;20457;-69
2023/09/13 01:02:41;;;;;;;57.57;3.90;;;;;;;;;;4955090;28;20457;-70
2023/09/13 01:05:09;;;;;;;57.20;3.10;;;;;;;;;;4945165;29;20453;-70
2023/09/13 01:07:37;;;;;;;57.47;3.57;;;;;;;;;;4946159;29;20478;-71
2023/09/13 01:10:06;;;;;;;57.30;2.80;;;;;;;;;;4946988;29;20517;-71
2023/09/13 01:12:33;;;;;;;57.30;3.00;;;;;;;;;;4949622;29;20457;-70
2023/09/13 01:15:00;;;;;;;58.43;3.10;;;;;;;;;;4949256;29;20493;-70
2023/09/13 01:17:31;;;;;;;57.63;3.13;;;;;;;;;;4949432;29;20480;-70
2023/09/13 01:20:03;;;;;;;57.47;3.30;;;;;;;;;;4952192;28;20457;-71
2023/09/13 01:22:48;;;;;;;57.07;3.30;;;;;;;;;;4953234;29;20543;-70
2023/09/13 01:25:33;;;;;;;57.83;3.80;;;;;;;;;;4955716;28;20453;-70
2023/09/13 01:28:07;;;;;;;57.20;2.80;;;;;;;;;;4946142;28;20520;-70
2023/09/13 01:30:36;;;;;;;57.67;3.80;;;;;;;;;;4946991;29;20444;-71
2023/09/13 01:33:03;;;;;;;57.50;3.13;;;;;;;;;;4944325;29;20822;-70
2023/09/13 01:35:30;;;;;;;57.60;3.43;;;;;;;;;;4935943;29;20536;-71
2023/09/13 01:37:58;;;;;;;57.93;3.63;;;;;;;;;;4936931;29;20477;-70
2023/09/13 01:40:27;;;;;;;57.17;3.10;;;;;;;;;;4947369;28;20980;-71
2023/09/13 01:42:56;;;;;;;57.20;3.03;;;;;;;;;;4947869;29;20453;-71
2023/09/13 01:45:24;;;;;;;57.30;3.20;;;;;;;;;;4954893;28;20476;-67
2023/09/13 01:47:53;;;;;;;57.10;2.90;;;;;;;;;;4943570;28;20488;-70
2023/09/13 01:50:21;;;;;;;56.70;2.67;;;;;;;;;;4936058;29;20450;-70
2023/09/13 01:52:48;;;;;;;58.60;2.80;;;;;;;;;;4954716;29;20451;-69
2023/09/13 01:55:15;;;;;;;57.40;3.00;;;;;;;;;;4954885;28;20878;-70
2023/09/13 01:57:42;;;;;;;57.20;3.77;;;;;;;;;;4954772;28;20468;-70
2023/09/13 02:00:10;;;;;;;57.70;3.60;;;;;;;;;;4954444;28;20467;-70
2023/09/13 02:02:38;;;;;;;57.00;2.87;;;;;;;;;;4945352;28;20462;-71
2023/09/13 02:05:07;;;;;;;57.93;4.10;;;;;;;;;;4935770;29;20454;-71
2023/09/13 02:07:34;;;;;;;57.93;3.30;;;;;;;;;;4934992;29;20840;-71
2023/09/13 02:10:01;;;;;;;57.13;3.17;;;;;;;;;;4935736;29;20492;-71
2023/09/13 02:12:28;;;;;;;56.90;2.70;;;;;;;;;;4935700;29;20453;-71
2023/09/13 02:14:55;;;;;;;57.50;3.60;;;;;;;;;;4935493;29;20456;-71
2023/09/13 02:20:27;;;;;;;57.30;3.00;;;;;;;;;;4953497;28;20443;-71
2023/09/13 02:22:54;;;;;;;58.00;2.83;;;;;;;;;;4943376;29;20513;-70
2023/09/13 02:25:21;;;;;;;56.70;2.40;;;;;;;;;;4950280;29;20483;-71
2023/09/13 02:27:48;;;;;;;56.57;2.37;;;;;;;;;;4938472;28;20468;-70
2023/09/13 02:30:15;;;;;;;56.80;2.70;;;;;;;;;;4944190;29;20453;-71
2023/09/13 02:32:42;;;;;;;57.37;3.47;;;;;;;;;;4952411;29;20460;-70
2023/09/13 02:35:11;;;;;;;57.07;2.87;;;;;;;;;;4940626;28;20822;-71
2023/09/13 02:37:40;;;;;;;57.50;2.83;;;;;;;;;;4934489;29;20480;-71
2023/09/13 02:40:09;;;;;;;56.70;2.60;;;;;;;;;;4934909;29;20965;-70
2023/09/13 02:42:37;;;;;;;56.87;2.87;;;;;;;;;;4934697;29;20461;-71
2023/09/13 02:45:04;;;;;;;56.87;2.70;;;;;;;;;;4934690;29;20454;-71
2023/09/13 02:47:31;;;;;;;57.80;3.20;;;;;;;;;;4934172;29;20470;-71
2023/09/13 02:49:58;;;;;;;59.67;4.00;;;;;;;;;;4934912;29;20458;-71
2023/09/13 02:52:29;;;;;;;56.90;3.00;;;;;;;;;;4934919;29;20446;-70
2023/09/13 02:54:58;;;;;;;56.60;2.57;;;;;;;;;;4934492;29;20537;-71
2023/09/13 02:57:25;;;;;;;57.50;3.40;;;;;;;;;;4934065;29;20497;-71
2023/09/13 02:59:52;;;;;;;57.13;2.80;;;;;;;;;;4953213;29;20449;-71
2023/09/13 03:02:20;;;;;;;57.10;3.33;;;;;;;;;;4954019;28;20818;-69
2023/09/13 03:04:50;;;;;;;56.97;3.40;;;;;;;;;;4953660;28;20534;-68
2023/09/13 03:07:17;;;;;;;57.20;2.70;;;;;;;;;;4953426;28;20484;-68
2023/09/13 03:09:45;;;;;;;57.33;2.80;;;;;;;;;;4953519;28;20456;-70
2023/09/13 03:12:14;;;;;;;57.37;3.03;;;;;;;;;;4953326;28;20453;-70
2023/09/13 03:14:41;;;;;;;56.90;2.70;;;;;;;;;;4953462;28;20453;-70
2023/09/13 03:17:11;;;;;;;57.37;3.23;;;;;;;;;;4952820;28;20493;-70
2023/09/13 03:19:38;;;;;;;57.37;3.47;;;;;;;;;;4953345;28;20548;-69
2023/09/13 03:22:05;;;;;;;57.20;3.43;;;;;;;;;;4953496;28;20500;-70
2023/09/13 03:24:32;;;;;;;57.13;2.90;;;;;;;;;;4953275;28;20456;-70
2023/09/13 03:27:00;;;;;;;57.60;3.00;;;;;;;;;;4952842;28;20468;-69
2023/09/13 03:29:28;;;;;;;57.20;2.70;;;;;;;;;;4953893;28;20813;-70
2023/09/13 03:31:55;;;;;;;56.87;2.70;;;;;;;;;;4953155;28;20444;-70
2023/09/13 03:34:22;;;;;;;57.67;3.40;;;;;;;;;;4952748;28;20449;-70
2023/09/13 03:36:49;;;;;;;56.57;2.50;;;;;;;;;;4952657;28;20500;-70
2023/09/13 03:39:16;;;;;;;57.47;3.17;;;;;;;;;;4952883;28;20464;-70
2023/09/13 03:41:43;;;;;;;56.67;2.93;;;;;;;;;;4952807;28;20457;-70
2023/09/13 03:44:10;;;;;;;57.37;2.90;;;;;;;;;;4953172;28;20445;-70
2023/09/13 03:46:39;;;;;;;57.67;3.50;;;;;;;;;;4952545;28;20469;-70
2023/09/13 03:49:06;;;;;;;58.30;4.03;;;;;;;;;;4953140;28;20449;-70
2023/09/13 03:51:34;;;;;;;57.20;3.00;;;;;;;;;;4952797;28;20457;-70
2023/09/13 03:54:01;;;;;;;58.07;3.20;;;;;;;;;;4952778;28;20448;-69
2023/09/13 03:56:28;;;;;;;57.23;3.40;;;;;;;;;;4952854;28;20512;-70
2023/09/13 03:58:55;;;;;;;57.47;2.80;;;;;;;;;;4952907;28;20445;-70
2023/09/13 04:01:24;;;;;;;56.70;2.97;;;;;;;;;;4952928;28;20449;-70
2023/09/13 04:03:52;;;;;;;57.07;2.90;;;;;;;;;;4952797;28;20807;-70
2023/09/13 04:06:19;;;;;;;56.97;2.93;;;;;;;;;;4952484;28;20496;-69
2023/09/13 04:08:46;;;;;;;56.87;2.63;;;;;;;;;;4952612;28;20445;-70
2023/09/13 04:11:13;;;;;;;57.07;2.87;;;;;;;;;;4952914;28;20445;-70
2023/09/13 04:13:40;;;;;;;57.30;2.97;;;;;;;;;;4952758;28;20452;-69
2023/09/13 04:16:08;;;;;;;56.90;2.70;;;;;;;;;;4952255;28;20503;-70
2023/09/13 04:18:35;;;;;;;56.67;2.80;;;;;;;;;;4952448;28;20449;-70
2023/09/13 04:21:04;;;;;;;57.17;3.07;;;;;;;;;;4948562;28;20934;-70
2023/09/13 04:23:31;;;;;;;57.33;3.37;;;;;;;;;;4948613;29;20453;-70
2023/09/13 04:25:58;;;;;;;56.77;2.40;;;;;;;;;;4941092;28;20445;-70
2023/09/13 04:28:25;;;;;;;56.90;3.07;;;;;;;;;;4941779;29;20456;-70
2023/09/13 04:30:52;;;;;;;58.33;3.30;;;;;;;;;;4934000;28;20450;-70
2023/09/13 04:33:20;;;;;;;57.00;3.03;;;;;;;;;;4933415;29;20508;-70
2023/09/13 04:35:47;;;;;;;57.40;3.43;;;;;;;;;;4932817;29;20449;-70
2023/09/13 04:38:16;;;;;;;57.50;3.30;;;;;;;;;;4939832;29;20957;-70
2023/09/13 04:40:43;;;;;;;57.00;3.30;;;;;;;;;;4935380;28;20823;-71
2023/09/13 04:43:23;;;;;;;56.83;2.80;;;;;;;;;;4933360;29;20458;-70
2023/09/13 04:45:51;;;;;;;56.80;2.90;;;;;;;;;;4954563;29;20460;-70
2023/09/13 04:48:18;;;;;;;57.07;3.40;;;;;;;;;;4955644;28;20456;-70
2023/09/13 04:50:45;;;;;;;56.87;2.60;;;;;;;;;;4956082;28;20453;-70
2023/09/13 04:53:12;;;;;;;57.90;4.30;;;;;;;;;;4956060;28;20455;-70
2023/09/13 04:55:41;;;;;;;56.97;2.87;;;;;;;;;;4946806;28;20453;-70
2023/09/13 04:58:08;;;;;;;56.97;2.80;;;;;;;;;;4936295;29;20869;-69
2023/09/13 05:00:35;;;;;;;56.87;2.50;;;;;;;;;;4936450;29;20455;-68
2023/09/13 05:03:02;;;;;;;57.20;2.70;;;;;;;;;;4936564;29;20746;-69
2023/09/13 05:05:29;;;;;;;56.77;2.50;;;;;;;;;;4936758;29;20446;-69
2023/09/13 05:07:57;;;;;;;56.67;2.73;;;;;;;;;;4936262;29;20473;-69
2023/09/13 05:10:24;;;;;;;57.00;2.60;;;;;;;;;;4936435;29;20457;-69
2023/09/13 05:12:52;;;;;;;57.20;3.30;;;;;;;;;;4936441;29;20465;-70
2023/09/13 05:15:19;;;;;;;56.67;3.00;;;;;;;;;;4936353;29;20450;-70
2023/09/13 05:17:46;;;;;;;57.40;2.90;;;;;;;;;;4935678;29;20501;-69
2023/09/13 05:20:13;;;;;;;56.97;3.37;;;;;;;;;;4936500;29;20454;-70
2023/09/13 05:22:40;;;;;;;56.67;2.50;;;;;;;;;;4936390;29;20456;-70
2023/09/13 05:25:08;;;;;;;56.63;2.70;;;;;;;;;;4936037;29;20450;-70
2023/09/13 05:27:35;;;;;;;56.60;2.60;;;;;;;;;;4935641;29;20478;-70
2023/09/13 05:30:03;;;;;;;56.60;2.20;;;;;;;;;;4936013;29;20818;-68
2023/09/13 05:32:30;;;;;;;56.57;2.47;;;;;;;;;;4936101;29;20445;-69
2023/09/13 05:34:57;;;;;;;56.87;3.00;;;;;;;;;;4935929;29;20581;-70
2023/09/13 05:37:25;;;;;;;56.67;2.40;;;;;;;;;;4949951;29;20497;-68
2023/09/13 05:39:53;;;;;;;57.40;3.50;;;;;;;;;;4954799;28;20480;-68
2023/09/13 05:42:20;;;;;;;56.90;2.43;;;;;;;;;;4954771;28;20929;-69
2023/09/13 05:44:47;;;;;;;56.80;2.63;;;;;;;;;;4954936;28;20449;-70
2023/09/13 05:47:15;;;;;;;56.37;2.43;;;;;;;;;;4954984;28;20556;-70
2023/09/13 05:49:42;;;;;;;56.70;2.43;;;;;;;;;;4954743;28;20959;-69
2023/09/13 05:52:09;;;;;;;58.07;2.77;;;;;;;;;;4954923;28;20448;-70
2023/09/13 05:54:36;;;;;;;57.10;3.47;;;;;;;;;;4954695;28;20445;-68
2023/09/13 05:57:03;;;;;;;56.87;2.60;;;;;;;;;;4953572;28;20507;-69
2023/09/13 05:59:35;;;;;;;56.97;2.77;;;;;;;;;;4954675;28;20449;-68
2023/09/13 06:02:02;;;;;;;56.70;2.40;;;;;;;;;;4954732;28;20459;-70
2023/09/13 06:04:31;;;;;;;56.40;2.70;;;;;;;;;;4954636;28;20793;-70
2023/09/13 06:06:58;;;;;;;56.77;2.50;;;;;;;;;;4954215;28;20489;-70
2023/09/13 06:09:25;;;;;;;56.77;2.50;;;;;;;;;;4954173;28;20453;-70
2023/09/13 06:11:52;;;;;;;56.70;2.73;;;;;;;;;;4954227;28;20968;-70
2023/09/13 06:14:19;;;;;;;56.47;2.53;;;;;;;;;;4954576;28;20489;-70
2023/09/13 06:16:46;;;;;;;56.40;2.50;;;;;;;;;;4953755;28;20535;-70
2023/09/13 06:19:13;;;;;;;56.63;2.63;;;;;;;;;;4954346;28;20497;-70
2023/09/13 06:21:42;;;;;;;58.30;3.07;;;;;;;;;;4954206;28;20459;-71
2023/09/13 06:24:09;;;;;;;57.57;2.77;;;;;;;;;;4949480;28;20809;-71
2023/09/13 06:26:36;;;;;;;57.57;3.63;;;;;;;;;;4954116;28;20471;-71
2023/09/13 06:29:03;;;;;;;56.80;2.90;;;;;;;;;;4954055;28;20898;-71
2023/09/13 06:31:30;;;;;;;56.13;2.50;;;;;;;;;;4954106;28;20822;-72
2023/09/13 06:33:57;;;;;;;56.57;2.37;;;;;;;;;;4953854;28;20455;-68
2023/09/13 06:36:25;;;;;;;56.87;2.40;;;;;;;;;;4953493;28;20469;-70
2023/09/13 06:38:53;;;;;;;57.13;2.70;;;;;;;;;;4953582;28;20836;-70
2023/09/13 06:41:20;;;;;;;56.90;2.60;;;;;;;;;;4948504;28;20558;-70
2023/09/13 06:43:47;;;;;;;56.70;2.37;;;;;;;;;;4934751;29;20460;-70
2023/09/13 06:46:15;;;;;;;56.60;2.43;;;;;;;;;;4934344;29;20475;-71
2023/09/13 06:48:42;;;;;;;57.07;2.80;;;;;;;;;;4934547;29;20454;-70
2023/09/13 06:51:09;;;;;;;56.40;2.30;;;;;;;;;;4934570;29;20454;-71
2023/09/13 06:53:36;;;;;;;56.90;2.73;;;;;;;;;;4949889;29;20463;-71
2023/09/13 06:56:05;;;;;;;57.00;2.40;;;;;;;;;;4953535;28;20445;-71
2023/09/13 06:58:32;;;;;;;56.97;2.40;;;;;;;;;;4953571;28;20595;-70
2023/09/13 07:00:59;;;;;;;56.50;2.00;;;;;;;;;;4953593;28;20483;-70
2023/09/13 07:03:26;;;;;;;56.17;2.20;;;;;;;;;;4953570;28;20451;-70
2023/09/13 07:05:53;;;;;;;56.20;2.00;;;;;;;;;;4952994;28;20770;-70
2023/09/13 07:08:20;;;;;;;56.60;2.50;;;;;;;;;;4952585;28;20447;-70
2023/09/13 07:10:48;;;;;;;56.50;2.57;;;;;;;;;;4953427;28;20455;-70
2023/09/13 07:13:16;;;;;;;56.60;2.37;;;;;;;;;;4947712;28;20462;-70
2023/09/13 07:15:43;;;;;;;56.97;2.40;;;;;;;;;;4934503;28;20460;-70
2023/09/13 07:18:10;;;;;;;56.50;2.40;;;;;;;;;;4933840;29;20489;-68
2023/09/13 07:20:37;;;;;;;56.77;2.43;;;;;;;;;;4934057;29;20937;-70
2023/09/13 07:23:04;;;;;;;56.23;2.23;;;;;;;;;;4953018;29;20827;-70
2023/09/13 07:25:31;;;;;;;56.40;2.40;;;;;;;;;;4953149;28;20460;-70
2023/09/13 07:27:59;;;;;;;56.20;2.10;;;;;;;;;;4952891;28;20475;-70
2023/09/13 07:30:28;;;;;;;56.23;2.37;;;;;;;;;;4953177;28;20915;-69
2023/09/13 07:32:55;;;;;;;56.40;2.27;;;;;;;;;;4953338;28;20449;-70
2023/09/13 07:35:23;;;;;;;56.40;2.43;;;;;;;;;;4953033;28;20456;-71
2023/09/13 07:37:50;;;;;;;56.20;2.33;;;;;;;;;;4952506;28;20496;-68
2023/09/13 07:40:17;;;;;;;56.53;2.40;;;;;;;;;;4953090;28;20468;-70
2023/09/13 07:42:44;;;;;;;56.97;2.60;;;;;;;;;;4952788;28;20453;-71
2023/09/13 07:45:11;;;;;;;56.30;2.17;;;;;;;;;;4952727;28;20453;-70
2023/09/13 07:47:40;;;;;;;56.40;2.20;;;;;;;;;;4952402;28;20469;-71
2023/09/13 07:50:07;;;;;;;56.50;2.10;;;;;;;;;;4952717;28;20463;-70
2023/09/13 07:52:35;;;;;;;56.90;2.30;;;;;;;;;;4952852;28;20453;-71
2023/09/13 07:55:02;;;;;;;56.57;2.40;;;;;;;;;;4952866;28;20456;-71
2023/09/13 07:57:29;;;;;;;56.50;2.10;;;;;;;;;;4952333;28;20488;-70
2023/09/13 07:59:56;;;;;;;56.50;2.80;;;;;;;;;;4952573;28;20452;-70
2023/09/13 08:02:23;;;;;;;56.03;2.00;;;;;;;;;;4948065;28;20463;-71
2023/09/13 08:04:52;;;;;;;56.50;2.27;;;;;;;;;;4943639;28;20464;-70
2023/09/13 08:07:19;;;;;;;56.80;2.23;;;;;;;;;;4945833;29;20473;-73
2023/09/13 08:09:46;;;;;;;56.40;2.30;;;;;;;;;;4952579;28;20467;-69
2023/09/13 08:12:13;;;;;;;56.30;2.30;;;;;;;;;;4952581;28;20448;-69
2023/09/13 08:14:40;;;;;;;56.87;2.20;;;;;;;;;;4952136;28;20453;-71
2023/09/13 08:17:07;;;;;;;56.90;2.43;;;;;;;;;;4952115;28;20468;-70
2023/09/13 08:19:34;;;;;;;56.57;2.10;;;;;;;;;;4954374;28;20937;-72
2023/09/13 08:22:04;;;;;;;57.10;2.30;;;;;;;;;;4956421;28;20482;-69
2023/09/13 08:24:31;;;;;;;57.17;2.50;;;;;;;;;;4950281;28;20469;-71
2023/09/13 08:26:58;;;;;;;56.60;2.10;;;;;;;;;;4953700;29;20483;-71
2023/09/13 08:29:26;;;;;;;56.23;1.90;;;;;;;;;;4951962;28;20457;-71
2023/09/13 08:31:53;;;;;;;56.90;2.13;;;;;;;;;;4948504;28;20456;-71
2023/09/13 08:34:20;;;;;;;56.20;2.10;;;;;;;;;;4943606;28;20460;-71
2023/09/13 08:36:49;;;;;;;56.53;2.00;;;;;;;;;;4936917;29;20478;-72
2023/09/13 08:39:17;;;;;;;56.30;2.00;;;;;;;;;;4937307;29;20827;-71
2023/09/13 08:41:49;;;;;;;56.20;2.60;;;;;;;;;;4936859;29;20454;-71
2023/09/13 08:44:18;;;;;;;56.47;2.30;;;;;;;;;;4949129;29;20456;-71
2023/09/13 08:46:46;;;;;;;56.23;2.10;;;;;;;;;;4955944;28;20472;-71
2023/09/13 08:49:14;;;;;;;56.00;1.97;;;;;;;;;;4956070;28;20448;-72
2023/09/13 08:51:41;;;;;;;56.37;2.10;;;;;;;;;;4955935;28;20453;-71
2023/09/13 08:54:08;;;;;;;56.87;2.33;;;;;;;;;;4955742;28;20445;-71
2023/09/13 08:56:37;;;;;;;56.50;2.20;;;;;;;;;;4955535;28;20477;-71
2023/09/13 08:59:04;;;;;;;56.17;2.00;;;;;;;;;;4955835;28;20502;-71
2023/09/13 09:01:32;;;;;;;56.50;2.10;;;;;;;;;;4955879;28;20890;-71
2023/09/13 09:04:01;;;;;;;57.20;2.30;;;;;;;;;;4955531;28;20934;-71
2023/09/13 09:06:28;;;;;;;56.20;2.20;;;;;;;;;;4955261;28;20476;-72
2023/09/13 09:08:55;;;;;;;56.63;2.00;;;;;;;;;;4954925;28;20478;-71
2023/09/13 09:11:24;;;;;;;56.80;2.27;;;;;;;;;;4955147;29;20451;-71
2023/09/13 09:13:53;;;;;;;56.17;1.93;;;;;;;;;;4955160;28;20453;-71
2023/09/13 09:16:22;;;;;;;56.70;2.20;;;;;;;;;;4947315;28;20471;-71
2023/09/13 09:18:50;;;;;;;56.23;2.23;;;;;;;;;;4939225;28;20489;-71
2023/09/13 09:21:18;;;;;;;56.23;1.90;;;;;;;;;;4936099;29;20938;-71
2023/09/13 09:23:45;;;;;;;56.40;2.10;;;;;;;;;;4936376;29;20461;-71
2023/09/13 09:26:13;;;;;;;57.27;2.33;;;;;;;;;;4955022;28;20468;-72
2023/09/13 09:28:40;;;;;;;56.80;2.63;;;;;;;;;;4955338;28;20453;-72
2023/09/13 09:31:10;;;;;;;56.07;1.93;;;;;;;;;;4954229;28;20492;-72
2023/09/13 09:33:38;;;;;;;55.87;1.97;;;;;;;;;;4954999;28;20911;-71
2023/09/13 09:36:05;;;;;;;56.37;2.30;;;;;;;;;;4954415;28;21009;-68
2023/09/13 09:38:32;;;;;;;56.60;2.50;;;;;;;;;;4947047;28;20485;-71
2023/09/13 09:41:01;;;;;;;57.20;2.80;;;;;;;;;;4945561;28;20896;-72
2023/09/13 09:43:29;;;;;;;56.60;2.63;;;;;;;;;;4935971;29;20823;-72
2023/09/13 09:45:56;;;;;;;56.40;2.20;;;;;;;;;;4935842;29;20902;-71
2023/09/13 09:48:24;;;;;;;56.20;2.30;;;;;;;;;;4935500;29;20453;-72
2023/09/13 09:50:53;;;;;;;56.70;2.00;;;;;;;;;;4935772;29;20453;-70
2023/09/13 09:53:21;;;;;;;56.60;2.33;;;;;;;;;;4936006;29;20800;-71
2023/09/13 09:55:48;;;;;;;56.17;2.20;;;;;;;;;;4935513;29;20457;-72
2023/09/13 09:58:17;;;;;;;56.60;2.40;;;;;;;;;;4935576;29;20481;-72
2023/09/13 10:00:45;;;;;;;57.07;2.10;;;;;;;;;;4935328;29;20557;-71
2023/09/13 10:03:17;;;;;;;56.17;2.00;;;;;;;;;;4954393;29;20452;-71
2023/09/13 10:05:52;;;;;;;57.57;2.60;;;;;;;;;;4954543;28;20547;-71
2023/09/13 10:08:20;;;;;;;56.60;2.30;;;;;;;;;;4954568;28;20846;-71
2023/09/13 10:10:47;;;;;;;56.60;2.63;;;;;;;;;;4954505;28;20453;-72
2023/09/13 10:13:15;;;;;;;56.60;2.90;;;;;;;;;;4954359;28;20452;-71
2023/09/13 10:15:43;;;;;;;56.03;2.00;;;;;;;;;;4954019;28;20449;-71
2023/09/13 10:18:13;;;;;;;56.27;2.10;;;;;;;;;;4953936;28;20496;-70
2023/09/13 10:20:42;;;;;;;56.23;2.00;;;;;;;;;;4954721;28;20846;-72
2023/09/13 10:23:13;;;;;;;56.50;2.30;;;;;;;;;;4954201;28;20828;-71
2023/09/13 10:25:40;;;;;;;56.60;2.40;;;;;;;;;;4954015;28;20499;-71
2023/09/13 10:28:09;;;;;;;56.80;2.20;;;;;;;;;;4954079;28;20465;-73
2023/09/13 10:30:37;;;;;;;56.70;2.30;;;;;;;;;;4954059;28;20455;-72
2023/09/13 10:33:04;;;;;;;56.40;2.10;;;;;;;;;;4954108;28;20471;-75
2023/09/13 10:35:33;;;;;;;56.80;2.40;;;;;;;;;;4954016;28;20839;-72
2023/09/13 10:38:04;;;;;;;56.90;2.60;;;;;;;;;;4953602;28;20616;-73
2023/09/13 10:40:39;;;;;;;56.40;1.93;;;;;;;;;;4953977;28;20453;-72
2023/09/13 10:43:06;;;;;;;56.97;2.63;;;;;;;;;;4953887;28;20813;-73
2023/09/13 10:45:33;;;;;;;56.73;2.30;;;;;;;;;;4953749;28;20451;-73
2023/09/13 10:48:03;;;;;;;57.10;2.67;;;;;;;;;;4953460;28;20469;-73
2023/09/13 10:50:31;;;;;;;56.47;2.20;;;;;;;;;;4953480;28;20885;-72
2023/09/13 10:53:00;;;;;;;56.03;2.00;;;;;;;;;;4944797;28;20460;-71
2023/09/13 10:55:27;;;;;;;56.67;2.37;;;;;;;;;;4947107;29;20475;-73
2023/09/13 10:57:57;;;;;;;56.40;2.17;;;;;;;;;;4953349;28;20469;-73
2023/09/13 11:00:25;;;;;;;56.17;2.07;;;;;;;;;;4953621;28;20459;-73
2023/09/13 11:02:52;;;;;;;56.67;2.03;;;;;;;;;;4953380;28;20452;-71
2023/09/13 11:05:19;;;;;;;56.10;2.10;;;;;;;;;;4953284;28;20471;-73
2023/09/13 11:07:48;;;;;;;56.10;2.67;;;;;;;;;;4952736;28;20556;-73
2023/09/13 11:10:16;;;;;;;57.77;2.57;;;;;;;;;;4945211;28;20941;-74
2023/09/13 11:12:48;;;;;;;56.40;2.30;;;;;;;;;;4946688;28;20461;-73
2023/09/13 11:15:20;;;;;;;56.80;2.70;;;;;;;;;;4934765;29;20460;-71
2023/09/13 11:17:47;;;;;;;56.30;1.90;;;;;;;;;;4944735;28;20476;-71
2023/09/13 11:20:24;;;;;;;56.40;2.13;;;;;;;;;;4937222;28;20452;-73
2023/09/13 11:23:08;;;;;;;57.07;2.63;;;;;;;;;;4945509;28;20462;-73
2023/09/13 11:25:36;;;;;;;56.57;2.10;;;;;;;;;;4947487;29;20468;-74
2023/09/13 11:28:05;;;;;;;57.97;2.40;;;;;;;;;;4952771;28;20492;-72
2023/09/13 11:30:49;;;;;;;56.77;2.70;;;;;;;;;;4952949;28;20453;-73
2023/09/13 11:33:16;;;;;;;57.40;2.60;;;;;;;;;;4953215;28;20455;-72
2023/09/13 11:35:44;;;;;;;56.50;2.20;;;;;;;;;;4952825;28;20490;-73
2023/09/13 11:38:13;;;;;;;57.03;2.53;;;;;;;;;;4952623;28;21014;-73
2023/09/13 11:40:42;;;;;;;56.90;2.47;;;;;;;;;;4952832;28;20460;-74
2023/09/13 11:43:11;;;;;;;56.60;2.27;;;;;;;;;;4952860;28;20457;-74
2023/09/13 11:45:40;;;;;;;56.10;2.10;;;;;;;;;;4952598;28;20894;-71
2023/09/13 11:48:09;;;;;;;55.67;2.00;;;;;;;;;;4952481;28;20483;-70
2023/09/13 11:50:45;;;;;;;55.93;2.00;;;;;;;;;;4952086;28;20453;-73
2023/09/13 11:53:15;;;;;;;56.10;2.10;;;;;;;;;;4951394;28;20461;-74
2023/09/13 11:55:44;;;;;;;56.17;2.50;;;;;;;;;;4952281;28;20457;-71
2023/09/13 11:58:16;;;;;;;56.00;1.87;;;;;;;;;;4951798;28;20449;-71
2023/09/13 12:00:43;;;;;;;56.67;2.23;;;;;;;;;;4951090;28;20503;-72
2023/09/13 12:03:11;;;;;;;56.40;2.00;;;;;;;;;;4952091;28;20479;-73
2023/09/13 12:05:39;;;;;;;56.63;2.10;;;;;;;;;;4951881;28;20777;-74
2023/09/13 12:08:19;;;;;;;56.30;2.20;;;;;;;;;;4951623;28;20475;-72
2023/09/13 12:10:46;;;;;;;56.70;2.30;;;;;;;;;;4952780;28;20612;-73
2023/09/13 12:13:13;;;;;;;56.40;2.50;;;;;;;;;;4952438;28;20456;-73
2023/09/13 12:15:55;;;;;;;56.30;2.20;;;;;;;;;;4952361;28;20830;-71
2023/09/13 12:18:24;;;;;;;56.30;2.20;;;;;;;;;;4952076;28;20453;-73
2023/09/13 12:20:51;;;;;;;56.60;2.50;;;;;;;;;;4952688;28;20449;-73
2023/09/13 12:23:18;;;;;;;57.43;2.37;;;;;;;;;;4952559;28;20452;-72
2023/09/13 12:25:47;;;;;;;56.27;2.00;;;;;;;;;;4952411;28;20537;-73
2023/09/13 12:28:25;;;;;;;55.60;2.00;;;;;;;;;;4952373;28;20456;-72
2023/09/13 12:30:52;;;;;;;56.60;2.30;;;;;;;;;;4952421;28;20456;-73
2023/09/13 12:33:19;;;;;;;56.20;1.93;;;;;;;;;;4952585;28;20453;-73
2023/09/13 12:35:50;;;;;;;56.30;2.17;;;;;;;;;;4952109;28;20941;-74
2023/09/13 12:38:19;;;;;;;56.10;1.77;;;;;;;;;;4952134;28;20523;-74
2023/09/13 12:40:52;;;;;;;56.10;2.17;;;;;;;;;;4952422;28;20453;-74
2023/09/13 12:43:19;;;;;;;56.30;2.30;;;;;;;;;;4952057;28;20464;-74
2023/09/13 12:45:46;;;;;;;55.80;1.93;;;;;;;;;;4952000;28;20453;-74
2023/09/13 12:48:14;;;;;;;56.40;2.20;;;;;;;;;;4952456;28;20540;-74
2023/09/13 12:50:41;;;;;;;55.70;1.87;;;;;;;;;;4952246;28;20559;-73
2023/09/13 12:53:09;;;;;;;55.73;1.80;;;;;;;;;;4952269;28;20536;-74
2023/09/13 12:55:38;;;;;;;56.07;1.90;;;;;;;;;;4952045;28;20452;-74
2023/09/13 12:58:06;;;;;;;56.30;2.03;;;;;;;;;;4951831;28;20854;-73
2023/09/13 13:00:33;;;;;;;55.90;2.00;;;;;;;;;;4951974;28;21036;-72
2023/09/13 13:03:00;;;;;;;56.10;2.10;;;;;;;;;;4951746;28;20828;-74
2023/09/13 13:05:27;;;;;;;55.70;2.10;;;;;;;;;;4934605;29;20453;-73
2023/09/13 13:08:04;;;;;;;56.47;2.20;;;;;;;;;;4936418;29;20841;-74
2023/09/13 13:10:32;;;;;;;55.90;2.00;;;;;;;;;;4948592;29;20449;-74
2023/09/13 13:12:59;;;;;;;56.57;2.53;;;;;;;;;;4955613;28;20492;-73
2023/09/13 13:15:32;;;;;;;56.10;2.00;;;;;;;;;;4955338;28;20535;-71
2023/09/13 13:17:59;;;;;;;56.00;1.70;;;;;;;;;;4955201;28;20930;-72
2023/09/13 13:20:26;;;;;;;56.27;2.00;;;;;;;;;;4955401;28;20492;-72
2023/09/13 13:22:53;;;;;;;56.30;2.03;;;;;;;;;;4955684;28;20805;-72
2023/09/13 13:25:21;;;;;;;56.80;2.33;;;;;;;;;;4955250;28;20463;-73
2023/09/13 13:27:49;;;;;;;56.10;2.00;;;;;;;;;;4955075;28;20484;-73
2023/09/13 13:30:16;;;;;;;56.10;2.20;;;;;;;;;;4955325;28;20449;-74
2023/09/13 13:32:43;;;;;;;56.60;2.00;;;;;;;;;;4955233;28;20453;-73
2023/09/13 13:35:11;;;;;;;56.10;2.23;;;;;;;;;;4955147;28;20463;-73
2023/09/13 13:37:38;;;;;;;55.90;2.03;;;;;;;;;;4954894;28;20853;-72
2023/09/13 13:40:05;;;;;;;55.50;1.70;;;;;;;;;;4955222;28;20500;-73
2023/09/13 13:42:32;;;;;;;55.90;1.90;;;;;;;;;;4955034;28;20452;-73
2023/09/13 13:45:01;;;;;;;55.63;1.67;;;;;;;;;;4955092;28;20523;-73
2023/09/13 13:47:28;;;;;;;56.20;2.13;;;;;;;;;;4954791;28;20477;-72
2023/09/13 13:49:56;;;;;;;56.07;2.23;;;;;;;;;;4955208;28;20489;-74
2023/09/13 13:52:23;;;;;;;57.20;2.30;;;;;;;;;;4954974;28;20453;-74
2023/09/13 13:54:52;;;;;;;56.30;2.00;;;;;;;;;;4954951;28;20540;-73
2023/09/13 13:57:19;;;;;;;56.00;2.00;;;;;;;;;;4954572;28;20480;-74
2023/09/13 13:59:46;;;;;;;56.20;2.20;;;;;;;;;;4954558;28;20494;-74
2023/09/13 14:02:14;;;;;;;56.10;2.27;;;;;;;;;;4945015;28;20957;-73
2023/09/13 14:04:41;;;;;;;55.80;2.13;;;;;;;;;;4935339;29;20456;-73
2023/09/13 14:07:08;;;;;;;55.80;1.80;;;;;;;;;;4935221;29;20469;-72
2023/09/13 14:09:35;;;;;;;56.17;1.77;;;;;;;;;;4935459;29;20451;-71
2023/09/13 14:12:04;;;;;;;56.30;2.30;;;;;;;;;;4935277;29;20461;-71
2023/09/13 14:14:31;;;;;;;56.27;2.07;;;;;;;;;;4935362;29;20462;-74
2023/09/13 14:16:58;;;;;;;56.47;2.43;;;;;;;;;;4934304;29;20481;-72
2023/09/13 14:19:26;;;;;;;56.50;2.03;;;;;;;;;;4954044;29;21046;-73
2023/09/13 14:21:53;;;;;;;56.13;2.30;;;;;;;;;;4954418;28;20449;-73
2023/09/13 14:24:21;;;;;;;56.30;2.13;;;;;;;;;;4954314;28;20756;-72
2023/09/13 14:26:48;;;;;;;56.63;2.20;;;;;;;;;;4953877;28;20513;-73
2023/09/13 14:29:15;;;;;;;56.90;2.20;;;;;;;;;;4954053;28;20452;-73
2023/09/13 14:31:43;;;;;;;56.53;2.40;;;;;;;;;;4954046;28;20508;-73
2023/09/13 14:34:10;;;;;;;57.47;2.70;;;;;;;;;;4954108;28;20495;-73
2023/09/13 14:36:38;;;;;;;56.27;2.50;;;;;;;;;;4953719;28;20481;-71
2023/09/13 14:39:05;;;;;;;56.60;2.30;;;;;;;;;;4953696;28;20844;-72